createdAt,value
2019-03-04T00:00:47.231Z,16.90
2019-03-04T00:03:57.814Z,17.10
2019-03-04T00:07:05.227Z,19.07
2019-03-04T00:10:12.692Z,16.90
2019-03-04T00:13:20.106Z,11.07
2019-03-04T00:16:27.621Z,14.50
2019-03-04T00:19:35.643Z,9.23
2019-03-04T00:22:44.303Z,12.43
2019-03-04T00:25:51.883Z,12.93
2019-03-04T00:28:59.447Z,12.13
2019-03-04T00:32:06.927Z,11.43
2019-03-04T00:35:14.327Z,9.17
2019-03-04T00:38:21.775Z,9.40
2019-03-04T00:41:29.249Z,9.60
2019-03-04T00:44:36.763Z,8.53
2019-03-04T00:47:44.234Z,13.10
2019-03-04T00:50:51.677Z,11.00
2019-03-04T00:53:59.609Z,15.97
2019-03-04T00:57:07.058Z,13.83
2019-03-04T01:00:17.928Z,15.23
2019-03-04T01:03:25.377Z,18.90
2019-03-04T01:06:32.836Z,19.50
2019-03-04T01:09:40.281Z,19.60
2019-03-04T01:12:47.703Z,13.10
2019-03-04T01:15:55.188Z,15.30
2019-03-04T01:19:02.627Z,22.00
2019-03-04T01:22:10.067Z,23.77
2019-03-04T01:25:18.587Z,17.70
2019-03-04T01:28:27.001Z,10.20
2019-03-04T01:31:34.437Z,9.83
2019-03-04T01:34:41.889Z,9.30
2019-03-04T01:37:49.285Z,8.60
2019-03-04T01:40:56.746Z,9.97
2019-03-04T01:44:04.307Z,6.23
2019-03-04T01:47:11.937Z,9.73
2019-03-04T01:50:19.647Z,10.93
2019-03-04T01:53:27.207Z,12.30
2019-03-04T01:56:34.774Z,10.50
2019-03-04T01:59:42.231Z,12.80
2019-03-04T02:02:49.719Z,10.30
2019-03-04T02:05:57.242Z,10.70
2019-03-04T02:09:05.859Z,14.70
2019-03-04T02:12:15.066Z,14.17
2019-03-04T02:15:22.577Z,15.07
2019-03-04T02:18:30.051Z,14.93
2019-03-04T02:21:37.659Z,15.67
2019-03-04T02:24:45.097Z,14.00
2019-03-04T02:27:54.821Z,11.93
2019-03-04T02:31:02.277Z,12.20
2019-03-04T02:34:09.713Z,10.10
2019-03-04T02:37:17.241Z,11.13
2019-03-04T02:40:24.641Z,12.70
2019-03-04T02:43:32.082Z,11.47
2019-03-04T02:46:39.523Z,10.20
2019-03-04T02:49:47.015Z,10.77
2019-03-04T02:52:54.512Z,9.13
2019-03-04T02:56:01.986Z,11.50
2019-03-04T02:59:09.411Z,11.27
2019-03-04T03:02:17.002Z,9.87
2019-03-04T03:05:24.450Z,11.10
2019-03-04T03:08:32.306Z,12.50
2019-03-04T03:11:40.233Z,11.93
2019-03-04T03:14:47.682Z,10.27
2019-03-04T03:17:55.271Z,10.60
2019-03-04T03:21:02.727Z,15.93
2019-03-04T03:24:10.146Z,14.30
2019-03-04T03:27:17.611Z,13.43
2019-03-04T03:30:25.085Z,14.03
2019-03-04T03:33:32.482Z,11.30
2019-03-04T03:36:39.905Z,11.80
2019-03-04T03:39:47.321Z,9.10
2019-03-04T03:42:54.759Z,7.93
2019-03-04T03:46:03.245Z,7.70
2019-03-04T03:49:10.642Z,8.10
2019-03-04T03:52:18.095Z,7.03
2019-03-04T03:55:25.519Z,7.10
2019-03-04T03:58:32.930Z,6.70
2019-03-04T04:01:40.389Z,5.13
2019-03-04T04:04:47.907Z,4.60
2019-03-04T04:07:55.367Z,6.03
2019-03-04T04:11:03.944Z,6.40
2019-03-04T04:14:11.525Z,5.77
2019-03-04T04:17:18.939Z,5.60
2019-03-04T04:20:26.349Z,6.00
2019-03-04T04:23:33.818Z,5.90
2019-03-04T04:26:41.202Z,6.20
2019-03-04T04:29:48.664Z,7.43
2019-03-04T04:32:56.098Z,7.73
2019-03-04T04:36:03.558Z,6.70
2019-03-04T04:39:10.956Z,8.10
2019-03-04T04:42:18.474Z,11.47
2019-03-04T04:45:26.011Z,8.10
2019-03-04T04:48:33.462Z,8.43
2019-03-04T04:51:40.972Z,7.47
2019-03-04T04:54:48.414Z,7.17
2019-03-04T04:57:55.863Z,8.20
2019-03-04T05:01:03.416Z,8.63
2019-03-04T05:04:10.971Z,8.67
2019-03-04T05:07:18.566Z,10.60
2019-03-04T05:10:26.118Z,10.80
2019-03-04T05:13:33.565Z,7.70
2019-03-04T05:16:40.987Z,9.00
2019-03-04T05:19:48.527Z,6.67
2019-03-04T05:22:56.944Z,10.57
2019-03-04T05:26:04.469Z,11.13
2019-03-04T05:29:11.992Z,11.83
2019-03-04T05:32:19.463Z,14.60
2019-03-04T05:35:26.932Z,16.80
2019-03-04T05:38:34.431Z,12.70
2019-03-04T05:41:41.947Z,13.03
2019-03-04T05:44:49.864Z,11.40
2019-03-04T05:47:57.305Z,14.57
2019-03-04T05:51:04.831Z,19.50
2019-03-04T05:54:12.692Z,19.17
2019-03-04T05:57:20.146Z,15.17
2019-03-04T06:00:29.022Z,18.30
2019-03-04T06:03:36.488Z,19.87
2019-03-04T06:06:53.046Z,18.80
2019-03-04T06:10:00.517Z,22.47
2019-03-04T06:13:09.234Z,20.17
2019-03-04T06:16:16.702Z,15.33
2019-03-04T06:19:24.271Z,17.40
2019-03-04T06:22:31.758Z,19.73
2019-03-04T06:25:39.302Z,22.03
2019-03-04T06:28:46.821Z,21.57
2019-03-04T06:31:54.900Z,22.67
2019-03-04T06:35:02.498Z,24.10
2019-03-04T06:38:10.000Z,26.60
2019-03-04T06:41:18.508Z,20.93
2019-03-04T06:44:26.144Z,16.30
2019-03-04T06:47:33.645Z,19.30
2019-03-04T06:50:54.800Z,26.73
2019-03-04T06:54:50.931Z,23.10
2019-03-04T06:57:58.395Z,24.37
2019-03-04T07:01:12.747Z,15.17
2019-03-04T07:04:35.916Z,14.20
2019-03-04T07:07:43.434Z,10.83
2019-03-04T07:10:50.979Z,10.40
2019-03-04T07:13:58.410Z,8.23
2019-03-04T07:17:05.962Z,11.10
2019-03-04T07:20:14.232Z,12.63
2019-03-04T07:23:21.771Z,11.17
2019-03-04T07:26:29.304Z,14.37
2019-03-04T07:29:36.786Z,12.47
2019-03-04T07:32:44.621Z,11.47
2019-03-04T07:35:52.113Z,14.37
2019-03-04T07:39:06.022Z,12.97
2019-03-04T07:42:14.873Z,11.73
2019-03-04T07:45:23.930Z,10.80
2019-03-04T07:48:31.449Z,10.90
2019-03-04T07:51:39.030Z,10.50
2019-03-04T07:54:46.468Z,11.50
2019-03-04T07:57:53.933Z,9.50
2019-03-04T08:01:01.389Z,8.53
2019-03-04T08:04:08.857Z,9.10
2019-03-04T08:07:49.166Z,9.83
2019-03-04T08:11:47.680Z,9.97
2019-03-04T08:14:55.169Z,11.17
2019-03-04T08:18:02.835Z,12.23
2019-03-04T08:21:10.385Z,11.67
2019-03-04T08:24:17.809Z,12.60
2019-03-04T08:27:25.300Z,21.27
2019-03-04T08:30:32.823Z,12.83
2019-03-04T08:33:40.352Z,15.33
2019-03-04T08:36:47.830Z,17.07
2019-03-04T08:39:55.304Z,11.50
2019-03-04T08:43:02.824Z,12.57
2019-03-04T08:46:10.344Z,18.17
2019-03-04T08:49:17.893Z,15.90
2019-03-04T08:52:25.460Z,13.40
2019-03-04T08:55:32.928Z,6.90
2019-03-04T08:58:40.469Z,10.37
2019-03-04T09:01:47.937Z,7.50
2019-03-04T09:04:56.635Z,5.83
2019-03-04T09:08:04.138Z,7.73
2019-03-04T09:11:11.763Z,8.90
2019-03-04T09:14:19.314Z,6.27
2019-03-04T09:17:26.804Z,5.77
2019-03-04T09:20:36.126Z,6.83
2019-03-04T09:23:43.658Z,9.00
2019-03-04T09:26:51.418Z,6.07
2019-03-04T09:29:58.924Z,8.00
2019-03-04T09:33:06.559Z,7.17
2019-03-04T09:36:14.071Z,7.30
2019-03-04T09:39:21.640Z,6.80
2019-03-04T09:42:29.563Z,5.20
2019-03-04T09:45:39.217Z,8.97
2019-03-04T09:48:47.888Z,9.70
2019-03-04T09:51:55.450Z,7.97
2019-03-04T09:55:02.909Z,5.17
2019-03-04T09:58:10.481Z,4.10
2019-03-04T10:01:27.632Z,5.80
2019-03-04T10:04:57.629Z,5.60
2019-03-04T10:08:48.718Z,4.80
2019-03-04T10:12:34.877Z,3.80
2019-03-04T10:16:06.919Z,2.47
2019-03-04T10:20:03.365Z,3.73
2019-03-04T10:23:46.214Z,5.23
2019-03-04T10:27:25.262Z,9.07
2019-03-04T10:30:49.059Z,3.40
2019-03-04T10:34:35.494Z,4.60
2019-03-04T10:38:22.182Z,4.90
2019-03-04T10:41:53.923Z,7.33
2019-03-04T10:45:18.705Z,4.40
2019-03-04T10:48:26.379Z,3.70
2019-03-04T10:51:33.988Z,4.73
2019-03-04T10:54:41.498Z,4.20
2019-03-04T10:57:48.991Z,5.00
2019-03-04T11:00:56.451Z,3.30
2019-03-04T11:04:04.088Z,5.67
2019-03-04T11:07:11.631Z,4.40
2019-03-04T11:10:19.150Z,6.27
2019-03-04T11:13:26.725Z,5.57
2019-03-04T11:16:34.633Z,4.30
2019-03-04T11:19:42.206Z,7.00
2019-03-04T11:22:49.724Z,4.77
2019-03-04T11:25:57.268Z,2.77
2019-03-04T11:29:05.901Z,5.60
2019-03-04T11:32:13.332Z,5.40
2019-03-04T11:35:20.780Z,5.53
2019-03-04T11:38:46.405Z,5.17
2019-03-04T11:41:53.933Z,3.90
2019-03-04T11:45:01.376Z,4.10
2019-03-04T11:48:09.076Z,4.53
2019-03-04T11:51:16.599Z,4.33
2019-03-04T11:54:24.036Z,5.50
2019-03-04T11:57:31.612Z,6.53
2019-03-04T12:00:47.051Z,6.30
2019-03-04T12:03:55.109Z,7.87
2019-03-04T12:07:02.673Z,4.47
2019-03-04T12:10:12.636Z,5.50
2019-03-04T12:13:20.271Z,7.07
2019-03-04T12:16:29.419Z,7.00
2019-03-04T12:19:37.052Z,6.97
2019-03-04T12:22:44.754Z,5.70
2019-03-04T12:25:52.312Z,3.97
2019-03-04T12:28:59.773Z,5.97
2019-03-04T12:32:10.670Z,5.33
2019-03-04T12:35:18.659Z,5.30
2019-03-04T12:38:26.171Z,5.47
2019-03-04T12:41:34.799Z,4.10
2019-03-04T12:51:33.650Z,7.40
2019-03-04T12:54:41.295Z,7.70
2019-03-04T12:57:48.890Z,8.63
2019-03-04T13:00:57.989Z,14.50
2019-03-04T13:04:05.519Z,7.10
2019-03-04T13:07:13.007Z,10.57
2019-03-04T13:10:20.760Z,7.10
2019-03-04T13:13:28.321Z,6.80
2019-03-04T13:16:36.008Z,9.63
2019-03-04T13:19:43.606Z,10.17
2019-03-04T13:22:51.082Z,12.70
2019-03-04T13:25:58.552Z,20.13
2019-03-04T13:29:06.331Z,18.17
2019-03-04T13:32:13.880Z,13.73
2019-03-04T13:35:24.836Z,9.50
2019-03-04T13:38:31.715Z,13.80
2019-03-04T13:41:39.267Z,14.30
2019-03-04T13:44:46.763Z,13.30
2019-03-04T13:47:54.624Z,12.93
2019-03-04T13:51:03.350Z,21.60
2019-03-04T13:54:10.785Z,15.13
2019-03-04T13:57:18.332Z,13.63
2019-03-04T14:00:25.831Z,20.93
2019-03-04T14:03:33.371Z,20.67
2019-03-04T14:06:40.857Z,19.40
2019-03-04T14:09:48.419Z,17.80
2019-03-04T14:12:55.920Z,18.40
2019-03-04T14:16:04.027Z,12.30
2019-03-04T14:19:11.477Z,15.90
2019-03-04T14:22:19.093Z,17.03
2019-03-04T14:25:26.567Z,19.60
2019-03-04T14:28:34.121Z,17.83
2019-03-04T14:31:41.565Z,19.10
2019-03-04T14:34:49.085Z,25.77
2019-03-04T14:37:56.726Z,36.60
2019-03-04T14:41:04.536Z,34.20
2019-03-04T14:44:12.155Z,56.53
2019-03-04T14:47:19.690Z,34.23
2019-03-04T14:50:28.612Z,25.23
2019-03-04T14:53:36.291Z,25.73
2019-03-04T14:56:43.858Z,22.80
2019-03-04T14:59:51.479Z,19.60
2019-03-04T15:02:59.055Z,25.30
2019-03-04T15:06:07.362Z,28.23
2019-03-04T15:09:15.861Z,26.23
2019-03-04T15:12:23.415Z,37.90
2019-03-04T15:15:31.569Z,34.40
2019-03-04T15:18:39.287Z,23.63
2019-03-04T15:21:49.105Z,16.70
2019-03-04T15:24:56.044Z,14.60
2019-03-04T15:28:18.924Z,16.93
2019-03-04T15:31:26.888Z,13.13
2019-03-04T15:34:34.480Z,14.47
2019-03-04T15:37:42.153Z,13.53
2019-03-04T15:40:49.800Z,11.13
2019-03-04T15:43:57.363Z,13.57
2019-03-04T15:47:04.986Z,14.73
2019-03-04T15:50:12.931Z,11.63
2019-03-04T15:53:20.446Z,19.20
2019-03-04T15:56:28.927Z,18.70
2019-03-04T15:59:36.551Z,20.80
2019-03-04T16:02:44.208Z,26.70
2019-03-04T16:05:51.801Z,31.43
2019-03-04T16:08:59.355Z,49.30
2019-03-04T16:12:08.433Z,41.90
2019-03-04T16:15:17.167Z,35.50
2019-03-04T16:18:24.827Z,35.60
2019-03-04T16:21:32.454Z,34.53
2019-03-04T16:24:40.069Z,40.10
2019-03-04T16:27:47.720Z,37.57
2019-03-04T16:30:55.250Z,34.93
2019-03-04T16:34:02.946Z,28.87
2019-03-04T16:37:10.759Z,32.10
2019-03-04T16:40:18.556Z,21.47
2019-03-04T16:43:26.385Z,26.37
2019-03-04T16:46:34.415Z,29.60
2019-03-04T16:49:42.192Z,24.27
2019-03-04T16:52:50.699Z,20.00
2019-03-04T16:55:58.281Z,26.50
2019-03-04T16:59:06.229Z,22.93
2019-03-04T17:02:14.224Z,28.00
2019-03-04T17:05:22.283Z,32.57
2019-03-04T17:08:29.942Z,42.70
2019-03-04T17:11:37.898Z,33.20
2019-03-04T17:14:45.595Z,36.80
2019-03-04T17:17:53.101Z,31.17
2019-03-04T17:21:00.621Z,27.00
2019-03-04T17:24:08.727Z,34.60
2019-03-04T17:27:16.436Z,32.10
2019-03-04T17:30:24.007Z,34.07
2019-03-04T17:33:31.492Z,33.60
2019-03-04T17:36:40.095Z,35.53
2019-03-04T17:39:47.667Z,38.47
2019-03-04T17:42:55.331Z,38.90
2019-03-04T17:46:02.975Z,32.77
2019-03-04T17:49:10.582Z,29.60
2019-03-04T17:52:18.157Z,37.83
2019-03-04T17:55:25.761Z,32.47
2019-03-04T17:58:33.427Z,33.18
2019-03-04T18:01:42.082Z,27.85
2019-03-04T18:04:51.433Z,28.40
2019-03-04T18:08:00.072Z,27.93
2019-03-04T18:11:07.665Z,32.90
2019-03-04T18:14:15.219Z,23.60
2019-03-04T18:17:22.856Z,24.20
2019-03-04T18:20:34.603Z,21.10
2019-03-04T18:23:42.142Z,14.83
2019-03-04T18:27:17.339Z,11.70
2019-03-04T18:30:35.588Z,11.40
2019-03-04T18:34:32.141Z,8.83
2019-03-04T18:38:24.799Z,10.17
2019-03-04T18:42:11.949Z,9.70
2019-03-04T18:46:23.088Z,8.60
2019-03-04T18:49:30.690Z,8.10
2019-03-04T18:52:38.254Z,5.17
2019-03-04T18:55:45.976Z,6.83
2019-03-04T18:58:53.678Z,7.60
2019-03-04T19:02:01.316Z,13.30
2019-03-04T19:05:09.460Z,25.37
2019-03-04T19:08:17.181Z,11.50
2019-03-04T19:11:24.816Z,9.23
2019-03-04T19:14:32.559Z,6.77
2019-03-04T19:17:40.204Z,6.30
2019-03-04T19:20:47.850Z,7.40
2019-03-04T19:23:55.508Z,12.73
2019-03-04T19:27:03.093Z,12.87
2019-03-04T19:30:11.061Z,20.20
2019-03-04T19:33:18.855Z,11.53
2019-03-04T19:36:26.520Z,12.00
2019-03-04T19:39:34.329Z,6.27
2019-03-04T19:42:41.885Z,15.13
2019-03-04T19:45:50.292Z,6.13
2019-03-04T19:48:57.942Z,8.20
2019-03-04T19:52:05.499Z,9.07
2019-03-04T19:55:13.645Z,6.70
2019-03-04T19:58:21.312Z,14.40
2019-03-04T20:01:28.935Z,11.47
2019-03-04T20:04:37.196Z,10.13
2019-03-04T20:07:45.851Z,4.80
2019-03-04T20:10:53.420Z,4.10
2019-03-04T20:14:00.921Z,9.37
2019-03-04T20:17:08.585Z,3.80
2019-03-04T20:20:16.285Z,15.00
2019-03-04T20:23:24.243Z,7.83
2019-03-04T20:26:31.859Z,7.70
2019-03-04T20:29:39.479Z,10.80
2019-03-04T20:32:48.816Z,10.50
2019-03-04T20:35:56.414Z,14.83
2019-03-04T20:39:05.452Z,15.60
2019-03-04T20:42:15.130Z,17.40
2019-03-04T20:45:30.292Z,15.53
2019-03-04T20:48:37.792Z,18.53
2019-03-04T20:51:45.256Z,17.30
2019-03-04T20:54:52.829Z,16.93
2019-03-04T20:58:00.478Z,15.93
2019-03-04T21:01:08.018Z,20.57
2019-03-04T21:04:15.654Z,11.07
2019-03-04T21:07:23.349Z,13.67
2019-03-04T21:10:31.009Z,13.90
2019-03-04T21:13:38.575Z,14.30
2019-03-04T21:16:46.178Z,13.47
2019-03-04T21:19:53.933Z,11.27
2019-03-04T21:23:01.512Z,10.20
2019-03-04T21:26:27.250Z,12.80
2019-03-04T21:30:18.874Z,6.53
2019-03-04T21:34:03.191Z,14.47
2019-03-04T21:37:30.990Z,15.23
2019-03-04T21:40:51.297Z,12.43
2019-03-04T21:44:07.974Z,13.80
2019-03-04T21:47:41.129Z,16.00
2019-03-04T21:51:38.146Z,20.83
2019-03-04T21:54:41.922Z,18.07
2019-03-04T21:57:55.847Z,19.90
2019-03-04T22:01:09.624Z,18.90
2019-03-04T22:04:17.167Z,16.27
2019-03-04T22:07:25.070Z,18.93
2019-03-04T22:10:33.291Z,11.93
2019-03-04T22:13:40.989Z,14.50
2019-03-04T22:16:48.848Z,18.57
2019-03-04T22:19:56.942Z,16.50
2019-03-04T22:23:04.498Z,17.60
2019-03-04T22:26:12.055Z,14.43
2019-03-04T22:29:19.582Z,14.90
2019-03-04T22:32:27.139Z,11.97
2019-03-04T22:35:34.765Z,15.43
2019-03-04T22:38:42.290Z,17.50
2019-03-04T22:41:49.903Z,16.80
2019-03-04T22:44:57.530Z,17.50
2019-03-04T22:48:05.052Z,15.33
2019-03-04T22:51:12.706Z,13.57
2019-03-04T22:54:20.285Z,12.53
2019-03-04T22:57:27.900Z,14.17
2019-03-04T23:01:26.676Z,14.73
2019-03-04T23:05:05.560Z,18.87
2019-03-04T23:08:14.550Z,15.77
2019-03-04T23:11:25.783Z,11.87
2019-03-04T23:14:33.382Z,12.43
2019-03-04T23:17:40.866Z,10.97
2019-03-04T23:20:48.431Z,12.83
2019-03-04T23:23:56.018Z,12.03
2019-03-04T23:27:03.593Z,11.10
2019-03-04T23:30:15.402Z,10.40
2019-03-04T23:33:23.058Z,8.10
2019-03-04T23:36:31.549Z,8.60
2019-03-04T23:39:40.727Z,8.00
2019-03-04T23:42:48.298Z,8.50
2019-03-04T23:45:55.838Z,7.00
2019-03-04T23:49:03.334Z,6.73
2019-03-04T23:52:10.845Z,6.50
2019-03-04T23:55:18.418Z,6.93
2019-03-04T23:58:25.952Z,6.37
